Time;durP1;ratioP1;P1;durP2;ratioP2;P2;SDS_P1;SDS_P2;PMS_P1;PMS_P2;Temp;Humidity;BMP_temperature;BMP_pressure;BME280_temperature;BME280_humidity;BME280_pressure;Samples;Min_cycle;Max_cycle;Signal;HPM_P1;HPM_P2
2022/08/06 03:01:40;;;;;;;3.85;1.60;;;19.70;99.90;;;;;;5652381;23;88775;-69
2022/08/06 03:04:07;;;;;;;7.72;1.52;;;19.80;99.90;;;;;;4819554;29;87560;-69
2022/08/06 03:06:36;;;;;;;2.85;1.33;;;19.60;99.90;;;;;;4822041;29;88177;-70
2022/08/06 03:09:04;;;;;;;2.75;1.13;;;19.50;99.90;;;;;;4820390;29;86891;-70
2022/08/06 03:11:34;;;;;;;8.40;1.75;;;19.40;99.90;;;;;;4821278;29;87159;-70
2022/08/06 03:14:06;;;;;;;4.03;1.92;;;19.50;99.90;;;;;;4820831;29;88126;-69
2022/08/06 03:16:36;;;;;;;4.65;1.50;;;19.30;99.90;;;;;;4819198;29;87922;-70
2022/08/06 03:19:03;;;;;;;5.20;1.50;;;19.30;99.90;;;;;;4819704;29;87111;-69
2022/08/06 03:21:30;;;;;;;3.00;1.52;;;19.40;99.90;;;;;;4820433;29;87088;-69
2022/08/06 03:23:59;;;;;;;4.05;1.90;;;19.40;99.90;;;;;;4820843;29;88142;-68
2022/08/06 03:26:26;;;;;;;3.30;1.40;;;19.20;99.90;;;;;;4821967;29;87412;-70
2022/08/06 03:28:55;;;;;;;3.40;1.70;;;19.10;99.90;;;;;;4819465;29;87123;-70
2022/08/06 03:31:22;;;;;;;5.05;1.60;;;19.20;99.90;;;;;;4821794;29;86603;-69
2022/08/06 03:33:50;;;;;;;2.25;1.08;;;19.20;99.90;;;;;;4821736;29;87109;-69
2022/08/06 03:36:16;;;;;;;2.85;1.10;;;19.30;99.90;;;;;;4821836;29;87220;-69
2022/08/06 03:38:49;;;;;;;7.15;1.88;;;19.40;99.90;;;;;;4820479;29;88548;-69
2022/08/06 03:41:16;;;;;;;2.33;1.30;;;19.50;99.90;;;;;;4820191;29;87122;-69
2022/08/06 03:43:42;;;;;;;2.08;0.98;;;19.50;99.90;;;;;;4820741;29;88891;-69
2022/08/06 03:46:09;;;;;;;3.30;1.58;;;19.60;99.90;;;;;;4820266;29;87124;-70
2022/08/06 03:48:40;;;;;;;2.53;0.90;;;19.60;99.90;;;;;;4821623;29;87149;-70
2022/08/06 03:51:15;;;;;;;2.53;0.95;;;19.60;99.90;;;;;;4821205;29;86943;-69
2022/08/06 03:53:43;;;;;;;4.88;1.05;;;19.50;99.90;;;;;;4820092;29;87132;-70
2022/08/06 03:56:13;;;;;;;1.80;0.80;;;19.50;99.90;;;;;;4821803;29;88907;-70
2022/08/06 03:58:42;;;;;;;2.03;1.05;;;19.40;99.90;;;;;;4819270;29;87109;-70
2022/08/06 04:01:13;;;;;;;2.08;0.75;;;19.40;99.90;;;;;;4820518;29;87410;-70
2022/08/06 04:03:39;;;;;;;4.93;0.80;;;19.40;99.90;;;;;;4810750;29;90776;-69
2022/08/06 04:06:10;;;;;;;2.67;0.80;;;19.40;99.90;;;;;;4817143;29;88317;-69
2022/08/06 04:08:38;;;;;;;3.53;1.05;;;19.40;99.90;;;;;;4813574;29;86735;-70
2022/08/06 04:11:06;;;;;;;4.00;0.88;;;19.30;99.90;;;;;;4818769;29;86960;-70
2022/08/06 04:13:32;;;;;;;1.60;0.77;;;19.40;99.90;;;;;;4805169;29;86771;-69
2022/08/06 04:15:58;;;;;;;2.42;1.13;;;19.50;99.90;;;;;;4814543;29;87861;-69
2022/08/06 04:18:27;;;;;;;2.45;0.85;;;19.50;99.90;;;;;;4815391;29;87097;-69
2022/08/06 04:20:57;;;;;;;2.47;0.93;;;19.60;99.90;;;;;;4820934;29;86303;-69
2022/08/06 04:23:23;;;;;;;2.63;1.20;;;19.70;99.90;;;;;;4820582;29;87273;-69
2022/08/06 04:26:04;;;;;;;3.20;1.15;;;19.70;99.90;;;;;;4814208;29;87142;-69
2022/08/06 04:28:32;;;;;;;2.78;1.17;;;19.80;99.90;;;;;;4817144;29;89680;-69
2022/08/06 04:30:59;;;;;;;6.57;1.10;;;19.80;99.90;;;;;;4820402;29;87397;-69
2022/08/06 04:33:27;;;;;;;3.97;1.55;;;19.80;99.90;;;;;;4818067;29;87055;-69
2022/08/06 04:35:53;;;;;;;3.08;1.20;;;19.90;99.90;;;;;;4814451;29;88168;-70
2022/08/06 04:38:23;;;;;;;4.53;1.25;;;19.90;99.90;;;;;;4820199;29;86809;-70
2022/08/06 04:40:49;;;;;;;3.45;1.50;;;20.00;99.90;;;;;;4818922;29;86817;-70
2022/08/06 04:43:15;;;;;;;4.13;1.75;;;20.00;99.90;;;;;;4817941;29;87423;-69
2022/08/06 04:45:43;;;;;;;3.85;1.90;;;20.10;99.90;;;;;;4817315;29;86233;-70
2022/08/06 04:48:10;;;;;;;4.00;1.75;;;20.20;99.90;;;;;;4819860;29;86989;-70
2022/08/06 04:50:37;;;;;;;3.78;2.03;;;20.30;99.90;;;;;;4824311;29;87458;-69
2022/08/06 04:53:09;;;;;;;3.65;1.88;;;20.40;99.90;;;;;;4823545;29;88187;-70
2022/08/06 04:55:35;;;;;;;6.85;3.75;;;20.40;99.90;;;;;;4822634;29;87879;-70
2022/08/06 04:58:08;;;;;;;5.32;2.97;;;20.40;99.90;;;;;;4821501;29;86940;-70
2022/08/06 05:00:35;;;;;;;7.28;2.97;;;20.30;99.90;;;;;;4823401;29;87074;-70
2022/08/06 05:03:02;;;;;;;5.78;3.20;;;20.40;99.90;;;;;;4823663;29;87282;-70
2022/08/06 05:05:31;;;;;;;6.97;3.30;;;20.40;99.90;;;;;;4823665;29;87025;-69
2022/08/06 05:07:59;;;;;;;7.28;2.70;;;20.30;99.90;;;;;;4821341;29;87178;-69
2022/08/06 05:10:55;;;;;;;7.60;3.33;;;20.20;99.90;;;;;;4822853;29;86472;-69
2022/08/06 05:13:23;;;;;;;6.53;4.00;;;20.20;99.90;;;;;;4817636;29;88488;-70
2022/08/06 05:15:56;;;;;;;8.43;3.78;;;20.10;99.90;;;;;;4815727;29;88030;-69
2022/08/06 05:18:29;;;;;;;6.82;3.40;;;20.10;99.90;;;;;;4817734;29;87593;-66
2022/08/06 05:20:56;;;;;;;8.35;3.63;;;20.30;99.90;;;;;;4820190;29;87205;-66
2022/08/06 05:23:40;;;;;;;6.75;3.55;;;20.40;99.90;;;;;;4813046;29;87555;-66
2022/08/06 05:26:07;;;;;;;6.18;3.63;;;20.50;99.90;;;;;;4818751;29;87984;-78
2022/08/06 05:28:33;;;;;;;6.80;3.90;;;20.50;99.90;;;;;;4822861;29;86947;-77
2022/08/06 05:30:59;;;;;;;7.88;3.92;;;20.50;99.90;;;;;;4826635;29;87025;-77
2022/08/06 05:33:28;;;;;;;8.43;4.68;;;20.70;99.90;;;;;;4819600;29;87645;-77
2022/08/06 05:35:54;;;;;;;5.68;3.53;;;20.80;99.90;;;;;;4820381;29;86681;-77
2022/08/06 05:38:20;;;;;;;7.32;3.80;;;20.90;99.90;;;;;;4818715;29;87411;-71
2022/08/06 05:40:46;;;;;;;6.32;3.13;;;21.00;99.90;;;;;;4819499;29;86898;-72
2022/08/06 05:43:12;;;;;;;7.05;3.10;;;21.10;99.90;;;;;;4818078;29;88164;-72
2022/08/06 05:45:41;;;;;;;7.90;4.25;;;21.20;99.90;;;;;;4821989;29;87828;-72
2022/08/06 05:48:08;;;;;;;7.80;4.00;;;21.30;99.90;;;;;;4823506;29;87086;-72
2022/08/06 05:50:40;;;;;;;6.88;3.17;;;21.20;99.90;;;;;;4822313;29;87027;-72
2022/08/06 05:53:42;;;;;;;7.15;3.40;;;21.20;99.90;;;;;;4816870;29;87122;-71
2022/08/06 05:56:12;;;;;;;8.95;3.15;;;21.10;99.90;;;;;;4816858;29;87192;-71
2022/08/06 05:58:46;;;;;;;5.70;3.13;;;21.00;99.90;;;;;;4821963;29;87162;-71
2022/08/06 06:01:13;;;;;;;6.07;2.65;;;21.00;99.90;;;;;;4813064;29;88521;-72
2022/08/06 06:03:41;;;;;;;8.30;3.42;;;21.10;99.90;;;;;;4817693;29;87065;-72
2022/08/06 06:06:08;;;;;;;6.88;3.35;;;21.20;99.90;;;;;;4815874;29;88442;-71
2022/08/06 06:08:36;;;;;;;7.10;3.20;;;21.30;99.90;;;;;;4822690;29;88008;-72
2022/08/06 06:11:03;;;;;;;6.00;2.78;;;21.20;99.90;;;;;;4819468;29;87369;-72
2022/08/06 06:13:29;;;;;;;6.18;2.42;;;21.10;99.90;;;;;;4829543;29;90288;-73
2022/08/06 06:16:29;;;;;;;7.13;3.22;;;21.10;99.90;;;;;;4821444;29;87460;-72
2022/08/06 06:19:14;;;;;;;8.98;3.47;;;20.70;99.90;;;;;;4815904;29;87193;-72
2022/08/06 06:22:02;;;;;;;6.25;3.25;;;20.70;99.90;;;;;;4815386;29;87434;-71
2022/08/06 06:24:36;;;;;;;9.43;3.47;;;20.60;99.90;;;;;;4815163;29;87940;-72
2022/08/06 06:27:28;;;;;;;7.75;3.10;;;20.50;99.90;;;;;;4813275;29;88188;-76
2022/08/06 06:30:06;;;;;;;8.18;4.07;;;20.70;99.90;;;;;;4818534;29;87468;-70
2022/08/06 06:32:50;;;;;;;7.18;3.05;;;20.80;99.90;;;;;;4822100;29;87768;-72
2022/08/06 06:35:37;;;;;;;6.40;2.80;;;20.90;99.90;;;;;;4823124;29;88662;-73
2022/08/06 06:38:15;;;;;;;6.97;3.40;;;21.30;99.90;;;;;;4816715;29;89025;-71
2022/08/06 06:40:58;;;;;;;10.35;3.30;;;21.60;99.90;;;;;;4815683;29;87019;-74
2022/08/06 06:43:33;;;;;;;6.75;3.30;;;21.80;99.90;;;;;;4823076;29;87071;-75
2022/08/06 06:46:10;;;;;;;8.20;3.83;;;21.90;99.90;;;;;;4814828;29;87595;-71
2022/08/06 06:49:10;;;;;;;7.18;3.53;;;21.60;99.90;;;;;;4822817;29;87300;-70
2022/08/06 06:51:44;;;;;;;7.35;3.75;;;21.40;99.90;;;;;;4817785;29;87112;-71
2022/08/06 06:54:19;;;;;;;7.80;4.00;;;21.30;99.90;;;;;;4821328;29;86411;-73
2022/08/06 06:56:49;;;;;;;8.25;3.22;;;21.20;99.90;;;;;;4816320;29;87687;-70
2022/08/06 06:59:19;;;;;;;7.28;3.33;;;21.10;99.90;;;;;;4810997;29;87846;-73
2022/08/06 07:01:47;;;;;;;7.07;3.60;;;21.10;99.90;;;;;;4814227;29;88131;-73
2022/08/06 07:04:16;;;;;;;7.07;2.90;;;20.90;99.90;;;;;;4817780;29;87646;-70
2022/08/06 07:06:46;;;;;;;8.57;4.13;;;20.90;99.90;;;;;;4813816;29;87958;-70
2022/08/06 07:09:23;;;;;;;8.82;3.33;;;20.70;99.90;;;;;;4816315;29;86979;-73
2022/08/06 07:11:51;;;;;;;6.93;3.20;;;20.60;99.90;;;;;;4817693;29;86968;-74
2022/08/06 07:14:20;;;;;;;7.00;2.90;;;20.50;99.90;;;;;;4816889;29;86683;-71
2022/08/06 07:16:48;;;;;;;7.15;2.83;;;20.30;99.90;;;;;;4816701;29;87347;-71
2022/08/06 07:19:17;;;;;;;6.90;2.65;;;20.30;99.90;;;;;;4817932;29;86555;-71
2022/08/06 07:21:44;;;;;;;5.15;2.53;;;20.30;99.90;;;;;;4814180;29;87443;-70
2022/08/06 07:24:17;;;;;;;6.38;2.75;;;20.40;99.90;;;;;;4817674;29;87152;-70
2022/08/06 07:26:44;;;;;;;5.20;2.22;;;20.70;99.90;;;;;;4817162;29;88402;-70
2022/08/06 07:29:12;;;;;;;10.70;2.28;;;21.00;99.90;;;;;;4817662;29;89115;-70
2022/08/06 07:31:40;;;;;;;5.40;2.55;;;21.00;99.70;;;;;;4814927;29;87167;-70
2022/08/06 07:34:07;;;;;;;4.72;2.00;;;20.90;99.60;;;;;;4813472;29;89034;-73
2022/08/06 07:36:36;;;;;;;4.68;1.85;;;20.70;99.70;;;;;;4816030;29;87871;-74
2022/08/06 07:39:06;;;;;;;4.18;1.83;;;20.70;99.80;;;;;;4815726;29;87636;-70
2022/08/06 07:41:34;;;;;;;3.90;1.73;;;20.80;99.90;;;;;;4817954;29;87714;-71
2022/08/06 07:44:02;;;;;;;3.70;1.40;;;20.90;99.30;;;;;;4814908;29;86321;-71
2022/08/06 07:46:48;;;;;;;5.07;1.50;;;21.30;98.50;;;;;;4816335;29;87686;-72
2022/08/06 07:49:16;;;;;;;5.63;1.35;;;21.80;96.10;;;;;;4813343;29;87944;-70
2022/08/06 07:51:45;;;;;;;4.88;1.80;;;21.90;97.00;;;;;;4813342;29;88775;-71
2022/08/06 07:54:11;;;;;;;4.18;1.50;;;21.70;96.00;;;;;;4813922;29;87552;-71
2022/08/06 07:56:41;;;;;;;6.63;1.25;;;21.80;95.50;;;;;;4811789;29;87766;-73
2022/08/06 07:59:09;;;;;;;5.45;1.90;;;21.90;95.80;;;;;;4810686;29;87436;-73
2022/08/06 08:01:37;;;;;;;5.38;1.00;;;22.00;94.90;;;;;;4819117;29;87109;-74
2022/08/06 08:06:59;;;;;;;3.00;1.20;;;22.60;93.60;;;;;;4822255;29;86924;-73
2022/08/06 08:09:26;;;;;;;3.72;1.10;;;22.60;91.60;;;;;;4825305;29;86968;-73
2022/08/06 08:11:53;;;;;;;2.95;0.95;;;22.40;92.40;;;;;;4820780;29;87030;-73
2022/08/06 08:14:20;;;;;;;2.35;1.00;;;22.50;91.70;;;;;;4825399;29;87396;-75
2022/08/06 08:16:46;;;;;;;3.97;0.85;;;22.20;92.80;;;;;;4827307;29;88185;-73
2022/08/06 08:19:32;;;;;;;3.70;1.10;;;22.30;92.70;;;;;;4824362;29;88707;-73
2022/08/06 08:22:11;;;;;;;3.67;0.93;;;22.40;92.30;;;;;;4823579;29;86926;-73
2022/08/06 08:24:38;;;;;;;3.72;1.00;;;22.30;93.00;;;;;;4823918;29;87180;-74
2022/08/06 08:27:08;;;;;;;4.10;0.93;;;22.20;92.40;;;;;;4825134;29;87543;-72
2022/08/06 08:29:34;;;;;;;1.95;0.93;;;22.20;92.50;;;;;;4820857;29;89406;-74
2022/08/06 08:32:01;;;;;;;3.75;1.08;;;22.00;92.50;;;;;;4822827;29;88140;-72
2022/08/06 08:34:27;;;;;;;2.58;1.25;;;22.00;92.50;;;;;;4824171;29;86264;-73
2022/08/06 08:36:52;;;;;;;3.28;1.10;;;22.00;92.80;;;;;;4819289;29;87856;-75
2022/08/06 08:39:19;;;;;;;4.80;1.10;;;21.70;93.10;;;;;;4826594;29;87229;-76
2022/08/06 08:41:51;;;;;;;4.22;0.85;;;21.50;93.70;;;;;;4818467;29;87887;-74
2022/08/06 08:44:25;;;;;;;4.93;0.70;;;21.60;93.80;;;;;;4824513;29;87104;-74
2022/08/06 08:46:51;;;;;;;2.40;0.70;;;21.80;92.90;;;;;;4824026;29;87022;-73
2022/08/06 08:49:32;;;;;;;2.92;0.77;;;21.80;92.40;;;;;;4822838;29;88172;-72
2022/08/06 08:51:59;;;;;;;4.72;0.80;;;21.80;92.50;;;;;;4824941;29;87089;-73
2022/08/06 08:54:28;;;;;;;2.35;0.75;;;21.80;92.70;;;;;;4821135;29;87085;-73
2022/08/06 08:56:55;;;;;;;3.92;0.90;;;21.70;92.70;;;;;;4816927;29;87081;-73
2022/08/06 08:59:21;;;;;;;2.45;1.02;;;21.50;93.00;;;;;;4822706;29;87400;-74
2022/08/06 09:01:47;;;;;;;3.40;1.13;;;21.30;93.30;;;;;;4823907;29;87492;-73
2022/08/06 09:04:13;;;;;;;2.10;1.00;;;21.00;94.50;;;;;;4824389;29;87070;-73
2022/08/06 09:06:39;;;;;;;3.33;0.93;;;21.00;94.70;;;;;;4824175;29;87857;-73
2022/08/06 09:09:06;;;;;;;2.33;0.93;;;21.10;94.70;;;;;;4824092;29;88249;-74
2022/08/06 09:11:35;;;;;;;2.58;0.77;;;21.10;95.00;;;;;;4821108;29;86787;-74
2022/08/06 09:14:06;;;;;;;3.42;0.90;;;21.10;94.90;;;;;;4820163;29;86946;-73
2022/08/06 09:16:34;;;;;;;2.85;0.60;;;21.10;94.50;;;;;;4824909;29;88082;-73
2022/08/06 09:19:00;;;;;;;2.50;1.08;;;21.00;95.00;;;;;;4825138;29;87388;-72
2022/08/06 09:21:27;;;;;;;3.70;0.90;;;20.90;95.70;;;;;;4825414;29;86929;-74
2022/08/06 09:23:54;;;;;;;2.47;0.52;;;21.20;95.30;;;;;;4822243;29;86303;-72
2022/08/06 09:26:19;;;;;;;1.95;0.90;;;21.30;94.90;;;;;;4824066;29;87489;-73
2022/08/06 09:28:45;;;;;;;3.22;0.82;;;21.40;94.60;;;;;;4821734;29;87967;-73
2022/08/06 09:31:13;;;;;;;3.13;0.90;;;21.40;93.90;;;;;;4815860;29;88272;-73
2022/08/06 09:33:42;;;;;;;3.10;1.27;;;21.50;93.70;;;;;;4821333;29;87564;-74
2022/08/06 09:36:08;;;;;;;;;;;21.30;93.80;;;;;;4823679;29;87450;-75
2022/08/06 09:38:58;;;;;;;1.75;0.63;;;21.30;93.80;;;;;;4825521;29;87564;-73
2022/08/06 09:41:27;;;;;;;2.78;1.15;;;21.20;94.20;;;;;;4824496;29;87068;-73
2022/08/06 09:43:54;;;;;;;3.97;1.25;;;21.10;94.40;;;;;;4812425;29;87312;-72
2022/08/06 09:46:41;;;;;;;4.28;1.33;;;21.00;94.80;;;;;;4824643;29;86952;-74
2022/08/06 09:49:08;;;;;;;3.22;1.02;;;21.00;95.00;;;;;;4820852;29;87020;-74
2022/08/06 09:51:34;;;;;;;2.83;1.05;;;21.10;94.80;;;;;;4825345;29;88145;-76
2022/08/06 09:54:02;;;;;;;3.78;0.82;;;21.10;94.80;;;;;;4825094;29;86851;-74
2022/08/06 09:56:28;;;;;;;3.28;1.02;;;21.20;94.80;;;;;;4821172;29;88450;-73
2022/08/06 09:59:07;;;;;;;2.42;0.90;;;21.20;94.50;;;;;;4821675;29;88624;-74
2022/08/06 10:01:42;;;;;;;4.00;0.93;;;21.30;94.40;;;;;;4824229;29;86914;-73
2022/08/06 10:04:14;;;;;;;3.78;2.05;;;21.30;94.00;;;;;;4822987;29;87069;-74
2022/08/06 10:06:58;;;;;;;4.18;1.00;;;21.10;94.60;;;;;;4817533;29;87323;-74
2022/08/06 10:09:25;;;;;;;1.90;1.00;;;21.20;94.60;;;;;;4816324;29;87650;-72
2022/08/06 10:11:51;;;;;;;2.38;0.90;;;21.20;94.00;;;;;;4821845;29;87038;-74
2022/08/06 10:14:33;;;;;;;2.45;0.80;;;21.20;94.10;;;;;;4823493;29;86315;-73
2022/08/06 10:17:14;;;;;;;2.88;0.98;;;21.30;93.50;;;;;;4824462;29;87566;-72
2022/08/06 10:19:42;;;;;;;1.95;0.60;;;21.00;94.80;;;;;;4824415;29;88228;-73
2022/08/06 10:22:13;;;;;;;3.00;0.80;;;21.00;94.90;;;;;;4820720;29;88204;-74
2022/08/06 10:24:42;;;;;;;1.58;0.63;;;20.90;95.00;;;;;;4822519;29;86878;-73
2022/08/06 10:27:13;;;;;;;2.25;1.00;;;21.00;94.90;;;;;;4822888;29;87293;-75
2022/08/06 10:30:02;;;;;;;2.67;0.90;;;21.10;94.20;;;;;;4823517;29;87223;-73
2022/08/06 10:32:43;;;;;;;1.70;0.70;;;21.20;94.10;;;;;;4828096;29;87381;-73
2022/08/06 10:35:09;;;;;;;1.88;0.60;;;21.20;93.80;;;;;;4819454;29;86932;-72
2022/08/06 10:37:41;;;;;;;2.72;0.65;;;21.40;92.70;;;;;;4819825;29;87165;-74
2022/08/06 10:40:11;;;;;;;1.98;0.82;;;21.20;93.10;;;;;;4813813;29;88366;-75
2022/08/06 10:42:38;;;;;;;2.33;0.60;;;21.00;93.90;;;;;;4820764;29;86983;-72
2022/08/06 10:45:05;;;;;;;2.88;0.73;;;21.00;94.00;;;;;;4820783;29;87116;-73
2022/08/06 10:47:32;;;;;;;1.95;0.90;;;21.10;93.20;;;;;;4820130;29;88582;-73
2022/08/06 10:49:59;;;;;;;2.72;0.82;;;21.10;93.30;;;;;;4816717;29;88462;-72
2022/08/06 10:52:25;;;;;;;3.55;1.00;;;21.40;93.00;;;;;;4812342;29;87746;-76
2022/08/06 10:54:52;;;;;;;7.97;1.25;;;21.50;92.80;;;;;;4817269;29;87148;-73
2022/08/06 10:57:19;;;;;;;7.45;1.00;;;21.30;92.90;;;;;;4817241;29;87122;-73
2022/08/06 10:59:47;;;;;;;9.25;1.05;;;21.40;92.70;;;;;;4817238;29;87233;-73
2022/08/06 11:02:23;;;;;;;2.13;0.98;;;21.50;93.10;;;;;;4813499;29;87209;-70
2022/08/06 11:04:52;;;;;;;4.75;0.93;;;21.10;94.00;;;;;;4817977;29;86546;-70
2022/08/06 11:07:40;;;;;;;3.00;0.80;;;21.40;94.00;;;;;;4821800;29;87237;-72
2022/08/06 11:10:17;;;;;;;2.70;1.27;;;21.70;92.80;;;;;;4816630;29;87805;-72
2022/08/06 11:13:04;;;;;;;12.30;1.02;;;21.70;91.60;;;;;;4813952;29;89628;-71
2022/08/06 11:15:35;;;;;;;3.15;0.70;;;21.80;92.20;;;;;;4819046;29;87026;-73
2022/08/06 11:18:07;;;;;;;2.30;0.80;;;21.80;92.10;;;;;;4819037;29;87500;-73
2022/08/06 11:20:33;;;;;;;1.98;0.88;;;21.90;91.20;;;;;;4816165;29;87029;-72
2022/08/06 11:23:19;;;;;;;2.33;0.65;;;21.90;91.50;;;;;;4820557;29;86893;-72
2022/08/06 11:25:51;;;;;;;1.65;0.82;;;21.60;91.70;;;;;;4816565;29;88223;-72
2022/08/06 11:28:39;;;;;;;1.92;0.85;;;21.40;92.30;;;;;;4816099;29;86981;-73
2022/08/06 11:31:10;;;;;;;1.95;0.70;;;21.50;91.50;;;;;;4815405;29;86420;-73
2022/08/06 11:33:36;;;;;;;4.00;0.75;;;21.70;92.10;;;;;;4818860;29;87440;-72
2022/08/06 11:36:04;;;;;;;1.83;0.82;;;21.60;92.20;;;;;;4818802;29;87196;-74
2022/08/06 11:38:48;;;;;;;1.75;0.68;;;21.60;92.20;;;;;;4814761;29;88542;-72
2022/08/06 11:41:30;;;;;;;1.27;0.50;;;21.90;91.30;;;;;;4814892;29;88282;-74
2022/08/06 11:43:56;;;;;;;2.25;1.25;;;21.90;91.40;;;;;;4819357;29;86896;-72
2022/08/06 11:46:30;;;;;;;1.95;0.77;;;22.10;91.30;;;;;;4817298;29;86922;-72
2022/08/06 11:48:58;;;;;;;1.35;0.68;;;22.00;90.90;;;;;;4820460;29;88043;-77
2022/08/06 11:51:46;;;;;;;1.77;0.63;;;21.90;91.60;;;;;;4816344;29;87387;-72
2022/08/06 11:54:25;;;;;;;1.65;0.93;;;22.00;91.70;;;;;;4819524;29;87053;-72
2022/08/06 11:57:06;;;;;;;2.58;0.93;;;22.20;91.30;;;;;;4819201;29;85862;-70
2022/08/06 11:59:37;;;;;;;2.35;0.70;;;22.30;90.90;;;;;;4823478;29;87654;-72
2022/08/06 12:02:09;;;;;;;1.60;0.80;;;22.30;90.80;;;;;;4821374;29;87062;-71
2022/08/06 12:04:34;;;;;;;1.33;0.60;;;22.20;91.60;;;;;;4818204;29;88352;-72
2022/08/06 12:07:20;;;;;;;3.70;0.82;;;22.50;90.10;;;;;;4823695;29;86946;-71
2022/08/06 12:10:07;;;;;;;1.67;0.80;;;22.60;90.10;;;;;;4821841;29;87549;-72
2022/08/06 12:12:45;;;;;;;1.77;0.88;;;22.80;90.10;;;;;;4814326;29;87268;-71
2022/08/06 12:15:16;;;;;;;4.53;1.02;;;23.10;88.70;;;;;;4814394;29;86908;-71
2022/08/06 12:18:00;;;;;;;2.45;1.05;;;22.90;88.90;;;;;;4823927;29;87335;-70
2022/08/06 12:20:38;;;;;;;1.73;0.77;;;22.80;89.10;;;;;;4822127;29;87701;-71
2022/08/06 12:23:06;;;;;;;2.22;0.95;;;22.70;89.50;;;;;;4823205;29;88463;-73
2022/08/06 12:25:34;;;;;;;2.42;1.35;;;22.60;89.20;;;;;;4819933;29;86967;-70
2022/08/06 12:28:00;;;;;;;2.50;1.10;;;22.50;88.90;;;;;;4823284;29;87065;-74
2022/08/06 12:30:26;;;;;;;3.30;1.27;;;22.30;89.80;;;;;;4822873;29;88191;-74
2022/08/06 12:33:02;;;;;;;3.03;1.30;;;22.50;90.10;;;;;;4822628;29;87371;-71
2022/08/06 12:35:28;;;;;;;3.63;1.67;;;22.70;87.90;;;;;;4821905;29;86872;-72
2022/08/06 12:37:55;;;;;;;3.10;1.60;;;22.70;88.00;;;;;;4822126;29;87027;-71
2022/08/06 12:40:26;;;;;;;2.55;1.27;;;22.60;88.30;;;;;;4821686;29;87648;-72
2022/08/06 12:42:53;;;;;;;3.50;1.70;;;22.60;88.60;;;;;;4821315;29;87164;-72
2022/08/06 12:45:24;;;;;;;3.85;2.10;;;22.60;89.10;;;;;;4821253;29;87413;-74
2022/08/06 12:48:07;;;;;;;2.80;1.40;;;22.60;89.10;;;;;;4822644;29;86184;-76
2022/08/06 12:50:37;;;;;;;4.05;1.75;;;22.60;90.00;;;;;;4822672;29;88589;-72
2022/08/06 12:53:03;;;;;;;2.90;1.42;;;22.70;88.10;;;;;;4819838;29;87856;-71
2022/08/06 12:55:29;;;;;;;4.15;2.20;;;22.80;86.00;;;;;;4821753;29;87994;-70
2022/08/06 12:57:56;;;;;;;4.80;2.13;;;22.80;86.60;;;;;;4820907;29;86988;-70
2022/08/06 13:00:23;;;;;;;6.07;2.40;;;22.90;84.90;;;;;;4824142;29;88376;-73
2022/08/06 13:02:50;;;;;;;4.13;2.33;;;22.90;84.00;;;;;;4832629;29;87205;-71
2022/08/06 13:05:17;;;;;;;5.13;1.95;;;22.70;86.00;;;;;;4823960;29;87146;-71
2022/08/06 13:07:43;;;;;;;5.40;2.50;;;22.70;85.30;;;;;;4824440;29;87109;-73
2022/08/06 13:10:13;;;;;;;4.57;2.30;;;22.70;85.60;;;;;;4822684;29;88476;-76
2022/08/06 13:12:39;;;;;;;5.28;2.20;;;22.50;87.00;;;;;;4824112;29;86581;-73
2022/08/06 13:15:13;;;;;;;6.93;2.35;;;22.60;85.00;;;;;;4825942;29;86983;-73
2022/08/06 13:17:39;;;;;;;8.98;2.72;;;22.80;84.60;;;;;;4825637;29;86657;-73
2022/08/06 13:20:06;;;;;;;7.88;2.92;;;22.90;84.10;;;;;;4821220;29;87979;-71
2022/08/06 13:22:48;;;;;;;5.13;2.42;;;22.90;83.20;;;;;;4824364;29;88362;-73
2022/08/06 13:25:16;;;;;;;5.47;2.53;;;23.10;83.30;;;;;;4823209;29;87124;-71
2022/08/06 13:27:42;;;;;;;5.15;2.42;;;23.40;82.60;;;;;;4825541;29;86984;-72
2022/08/06 13:30:09;;;;;;;5.35;2.75;;;23.60;81.00;;;;;;4816709;29;86968;-73
2022/08/06 13:32:35;;;;;;;5.97;2.97;;;23.70;81.30;;;;;;4825212;29;86999;-72
2022/08/06 13:35:10;;;;;;;6.93;2.97;;;23.60;80.00;;;;;;4823796;29;87122;-71
2022/08/06 13:37:43;;;;;;;7.13;2.72;;;23.50;80.50;;;;;;4822315;29;86442;-70
2022/08/06 13:40:08;;;;;;;6.60;3.25;;;23.60;79.90;;;;;;4819130;29;87035;-71
2022/08/06 13:42:48;;;;;;;7.90;3.30;;;23.40;80.50;;;;;;4824976;29;87100;-75
2022/08/06 13:45:25;;;;;;;5.88;2.92;;;23.50;81.50;;;;;;4820988;29;87979;-75
2022/08/06 13:48:04;;;;;;;8.65;3.55;;;23.70;80.00;;;;;;4822529;29;87474;-73
2022/08/06 13:50:44;;;;;;;6.40;3.58;;;23.50;79.10;;;;;;4824067;29;87159;-72
2022/08/06 13:53:11;;;;;;;7.03;4.18;;;23.20;80.40;;;;;;4813062;29;87397;-70
2022/08/06 13:55:38;;;;;;;6.03;3.33;;;23.00;81.20;;;;;;4825325;29;87237;-71
2022/08/06 13:58:04;;;;;;;7.00;3.60;;;23.00;81.20;;;;;;4823658;29;87102;-76
2022/08/06 14:00:31;;;;;;;7.07;3.58;;;22.70;82.40;;;;;;4824349;29;88576;-74
2022/08/06 14:02:56;;;;;;;7.22;3.38;;;22.90;82.80;;;;;;4822927;29;86958;-73
2022/08/06 14:05:23;;;;;;;6.28;3.78;;;23.00;81.40;;;;;;4824619;29;87103;-72
2022/08/06 14:07:49;;;;;;;5.65;2.90;;;23.00;81.70;;;;;;4821581;29;86942;-74
2022/08/06 14:10:17;;;;;;;6.05;3.53;;;22.90;81.50;;;;;;4819638;29;88574;-73
2022/08/06 14:13:15;;;;;;;6.43;3.65;;;22.80;82.10;;;;;;4824422;29;87279;-76
2022/08/06 14:15:29;;;;;;;7.40;4.13;;;22.80;81.90;;;;;;4822563;29;87085;-75
2022/08/06 14:17:55;;;;;;;7.68;3.90;;;22.60;83.10;;;;;;4824961;29;87419;-74
2022/08/06 14:20:20;;;;;;;8.45;4.05;;;22.70;83.00;;;;;;4823200;29;87112;-72
2022/08/06 14:22:46;;;;;;;5.80;3.75;;;22.60;82.70;;;;;;4822721;29;87222;-71
2022/08/06 14:25:12;;;;;;;7.18;3.58;;;22.60;83.10;;;;;;4821470;29;87441;-73
2022/08/06 14:27:37;;;;;;;5.63;3.10;;;22.70;82.10;;;;;;4825156;29;86310;-71
2022/08/06 14:30:03;;;;;;;6.20;4.22;;;22.60;82.70;;;;;;4824867;29;87044;-71
2022/08/06 14:32:29;;;;;;;8.90;4.85;;;22.50;83.20;;;;;;4824801;29;87342;-73
2022/08/06 14:34:56;;;;;;;10.27;4.07;;;22.40;83.00;;;;;;4822373;29;88620;-73
2022/08/06 14:37:21;;;;;;;6.43;3.95;;;22.40;83.50;;;;;;4820887;29;87035;-72
2022/08/06 14:39:47;;;;;;;6.57;3.90;;;22.50;83.20;;;;;;4824397;29;87260;-70
2022/08/06 14:44:59;;;;;;;8.15;4.68;;;22.40;83.90;;;;;;4821483;29;86969;-73
2022/08/06 14:47:25;;;;;;;8.10;3.70;;;22.40;83.80;;;;;;4823056;29;87083;-73
2022/08/06 14:49:51;;;;;;;7.60;4.00;;;22.60;82.90;;;;;;4823851;29;88539;-73
2022/08/06 14:52:17;;;;;;;7.13;4.22;;;22.60;82.80;;;;;;4814137;29;87403;-72
2022/08/06 14:54:43;;;;;;;6.10;4.43;;;22.80;83.30;;;;;;4819230;29;86997;-74
2022/08/06 14:57:10;;;;;;;7.93;4.38;;;22.90;82.10;;;;;;4823713;29;87043;-70
2022/08/06 14:59:36;;;;;;;6.82;3.95;;;22.80;81.60;;;;;;4821560;29;88730;-70
2022/08/06 15:02:03;;;;;;;7.80;3.90;;;22.80;81.60;;;;;;4820727;29;89188;-74
2022/08/06 15:04:29;;;;;;;7.50;4.20;;;22.80;81.90;;;;;;4823032;29;87141;-73
2022/08/06 15:06:55;;;;;;;9.43;4.03;;;22.80;82.00;;;;;;4823714;29;86715;-70
2022/08/06 15:09:23;;;;;;;6.78;3.97;;;22.70;83.70;;;;;;4819738;29;87090;-73
2022/08/06 15:11:49;;;;;;;7.28;3.83;;;23.00;82.10;;;;;;4822717;29;87119;-71
2022/08/06 15:14:15;;;;;;;5.80;3.60;;;23.20;80.40;;;;;;4822673;29;86978;-72
2022/08/06 15:16:41;;;;;;;9.63;4.15;;;23.20;80.50;;;;;;4821577;29;87251;-70
2022/08/06 15:19:07;;;;;;;5.22;3.15;;;23.50;81.30;;;;;;4812586;29;87453;-71
2022/08/06 15:21:32;;;;;;;6.07;3.20;;;23.60;79.70;;;;;;4818970;29;87630;-72
2022/08/06 15:23:58;;;;;;;5.80;3.47;;;23.90;78.30;;;;;;4821863;29;87822;-71
2022/08/06 15:26:25;;;;;;;6.32;3.78;;;24.00;78.30;;;;;;4821438;29;87128;-73
2022/08/06 15:28:51;;;;;;;4.75;2.80;;;24.10;79.70;;;;;;4814922;29;87689;-72
2022/08/06 15:31:17;;;;;;;6.57;3.10;;;23.50;80.20;;;;;;4821908;29;87417;-74
2022/08/06 15:33:45;;;;;;;6.72;2.85;;;23.10;81.30;;;;;;4818734;29;87143;-74
2022/08/06 15:36:11;;;;;;;4.57;2.92;;;22.70;83.10;;;;;;4819420;29;87339;-70
2022/08/06 15:38:37;;;;;;;5.68;3.58;;;22.40;84.00;;;;;;4821683;29;87034;-73
2022/08/06 15:41:04;;;;;;;6.80;3.60;;;22.30;83.60;;;;;;4816374;29;87032;-73
2022/08/06 15:43:30;;;;;;;6.35;3.45;;;22.30;83.50;;;;;;4821918;29;87496;-70
2022/08/06 15:45:58;;;;;;;6.07;3.80;;;22.10;85.40;;;;;;4820586;29;89002;-72
2022/08/06 15:48:25;;;;;;;7.05;4.28;;;22.00;85.20;;;;;;4822850;29;88115;-74
2022/08/06 15:50:52;;;;;;;7.68;3.42;;;21.60;86.80;;;;;;4819859;29;88788;-77
2022/08/06 15:53:19;;;;;;;6.88;4.13;;;21.50;88.10;;;;;;4818526;29;86940;-72
2022/08/06 15:55:46;;;;;;;7.90;3.72;;;21.60;88.30;;;;;;4815603;29;87061;-74
2022/08/06 15:58:12;;;;;;;7.03;4.20;;;21.40;89.70;;;;;;4818281;29;87617;-77
2022/08/06 16:00:40;;;;;;;10.98;4.03;;;21.50;89.00;;;;;;4817404;29;87122;-70
2022/08/06 16:03:08;;;;;;;6.82;4.32;;;21.40;89.40;;;;;;4820050;29;87116;-73
2022/08/06 16:05:35;;;;;;;8.15;5.00;;;21.10;90.00;;;;;;4820528;29;86590;-73
2022/08/06 16:08:01;;;;;;;8.48;4.70;;;20.90;89.60;;;;;;4819630;29;88102;-72
2022/08/06 16:10:28;;;;;;;8.63;5.43;;;20.80;90.30;;;;;;4816111;29;87162;-71